Time;durP1;ratioP1;P1;durP2;ratioP2;P2;SDS_P1;SDS_P2;PMS_P1;PMS_P2;Temp;Humidity;BMP_temperature;BMP_pressure;BME280_temperature;BME280_humidity;BME280_pressure;Samples;Min_cycle;Max_cycle;Signal;HPM_P1;HPM_P2
2022/04/07 00:01:34;;;;;;;6.45;2.30;;;9.30;99.90;;;;;;6185477;23;20024;-79
2022/04/07 00:04:00;;;;;;;5.40;2.30;;;9.30;99.90;;;;;;6159299;23;20013;-79
2022/04/07 00:06:25;;;;;;;5.68;2.25;;;9.20;99.90;;;;;;6183986;23;20013;-80
2022/04/07 00:08:51;;;;;;;7.72;2.53;;;9.20;99.90;;;;;;6185693;23;20099;-82
2022/04/07 00:11:16;;;;;;;5.53;2.50;;;9.20;99.90;;;;;;6184660;23;20097;-79
2022/04/07 00:13:42;;;;;;;5.00;2.58;;;9.10;99.90;;;;;;6161083;23;20016;-80
2022/04/07 00:16:14;;;;;;;3.67;2.70;;;9.10;99.90;;;;;;6185839;23;20020;-79
2022/04/07 00:18:39;;;;;;;5.15;2.97;;;9.10;99.90;;;;;;6187621;23;20067;-80
2022/04/07 00:21:11;;;;;;;6.32;3.03;;;9.10;99.90;;;;;;6187151;23;20044;-82
2022/04/07 00:23:38;;;;;;;9.35;3.42;;;9.10;99.90;;;;;;6186337;23;20075;-79
2022/04/07 00:26:04;;;;;;;8.85;3.90;;;9.10;99.90;;;;;;6185810;23;20051;-79
2022/04/07 00:28:30;;;;;;;5.47;3.88;;;9.10;99.90;;;;;;6185819;23;20009;-80
2022/04/07 00:30:58;;;;;;;6.70;4.50;;;9.10;99.90;;;;;;6160889;23;20058;-80
2022/04/07 00:33:23;;;;;;;5.70;4.75;;;9.10;99.90;;;;;;6186070;23;20035;-80
2022/04/07 00:35:49;;;;;;;7.25;4.70;;;9.10;99.90;;;;;;6186402;23;20402;-80
2022/04/07 00:38:15;;;;;;;6.25;4.45;;;9.10;99.90;;;;;;6184577;23;20024;-79
2022/04/07 00:40:40;;;;;;;6.03;4.70;;;9.10;99.90;;;;;;6183788;23;20028;-79
2022/04/07 00:43:06;;;;;;;6.15;4.78;;;9.10;99.90;;;;;;6184603;23;20063;-80
2022/04/07 00:45:33;;;;;;;5.38;4.57;;;9.20;99.90;;;;;;6184519;23;20016;-79
2022/04/07 00:48:00;;;;;;;8.02;4.80;;;9.20;99.90;;;;;;6184436;23;20017;-79
2022/04/07 00:50:26;;;;;;;7.70;5.07;;;9.20;99.90;;;;;;6183311;23;20013;-79
2022/04/07 00:53:00;;;;;;;7.68;5.32;;;9.20;99.90;;;;;;6181851;23;20013;-79
2022/04/07 00:55:27;;;;;;;7.18;4.70;;;9.20;99.90;;;;;;6184649;23;20020;-79
2022/04/07 00:57:53;;;;;;;5.95;3.90;;;9.20;99.90;;;;;;6183911;23;20016;-80
2022/04/07 01:00:18;;;;;;;8.07;4.40;;;9.20;99.90;;;;;;6183976;23;20039;-79
2022/04/07 01:02:44;;;;;;;9.13;4.00;;;9.10;99.90;;;;;;6183711;23;20477;-79
2022/04/07 01:05:10;;;;;;;6.53;4.95;;;9.20;99.90;;;;;;6184838;23;20450;-79
2022/04/07 01:07:37;;;;;;;8.85;4.57;;;9.20;99.90;;;;;;6182544;23;20009;-79
2022/04/07 01:10:09;;;;;;;6.97;4.35;;;9.20;99.90;;;;;;6159062;23;20347;-80
2022/04/07 01:12:38;;;;;;;6.25;3.40;;;9.20;99.90;;;;;;6185472;23;20017;-79
2022/04/07 01:15:07;;;;;;;7.28;3.40;;;9.20;99.90;;;;;;6184349;23;20478;-79
2022/04/07 01:17:38;;;;;;;6.55;4.07;;;9.20;99.90;;;;;;6184354;23;20048;-79
2022/04/07 01:20:08;;;;;;;6.20;3.47;;;9.20;99.90;;;;;;6185672;23;20017;-79
2022/04/07 01:22:40;;;;;;;9.00;3.50;;;9.20;99.90;;;;;;6160700;23;20355;-82
2022/04/07 01:25:21;;;;;;;8.10;3.63;;;9.20;99.90;;;;;;6174841;23;20023;-80
2022/04/07 01:27:50;;;;;;;6.88;3.05;;;9.10;99.90;;;;;;6193832;23;20020;-81
2022/04/07 01:30:17;;;;;;;8.43;3.65;;;9.10;99.90;;;;;;6181969;23;20017;-79
2022/04/07 01:32:50;;;;;;;5.15;2.30;;;9.20;99.90;;;;;;6157001;23;20100;-79
2022/04/07 01:35:22;;;;;;;4.63;2.47;;;9.10;99.90;;;;;;6181342;23;20492;-79
2022/04/07 01:37:50;;;;;;;5.47;2.77;;;9.10;99.90;;;;;;6156127;23;20020;-79
2022/04/07 01:40:21;;;;;;;6.30;2.50;;;9.00;99.90;;;;;;6181095;23;20259;-80
2022/04/07 01:42:47;;;;;;;4.30;1.45;;;9.10;99.90;;;;;;6181498;23;20017;-79
2022/04/07 01:45:14;;;;;;;4.53;2.35;;;9.10;99.90;;;;;;6181406;23;20430;-79
2022/04/07 01:47:42;;;;;;;8.00;1.52;;;9.00;99.90;;;;;;6156303;23;20033;-80
2022/04/07 01:50:09;;;;;;;4.15;2.20;;;9.00;99.90;;;;;;6155291;23;20018;-81
2022/04/07 01:52:36;;;;;;;5.13;2.20;;;9.00;99.90;;;;;;6182563;23;20547;-79
2022/04/07 01:55:05;;;;;;;4.90;2.10;;;8.90;99.90;;;;;;6156830;23;20021;-80
2022/04/07 01:57:32;;;;;;;4.90;2.15;;;8.90;99.90;;;;;;6156182;23;20016;-79
2022/04/07 02:00:00;;;;;;;4.28;1.90;;;8.90;99.90;;;;;;6182518;23;20017;-79
2022/04/07 02:02:27;;;;;;;4.40;1.60;;;8.90;99.90;;;;;;6132689;23;20063;-80
2022/04/07 02:04:58;;;;;;;5.15;2.35;;;8.90;99.90;;;;;;6175485;23;20013;-79
2022/04/07 02:07:31;;;;;;;10.02;2.33;;;8.90;99.90;;;;;;6205599;23;20040;-80
2022/04/07 02:09:57;;;;;;;6.18;2.05;;;9.00;99.90;;;;;;6158064;23;20075;-80
2022/04/07 02:12:23;;;;;;;6.47;2.17;;;8.90;99.90;;;;;;6188975;23;20017;-78
2022/04/07 02:14:49;;;;;;;7.72;2.22;;;9.00;99.90;;;;;;6189277;23;20337;-79
2022/04/07 02:17:22;;;;;;;8.23;2.58;;;8.90;99.90;;;;;;6186408;23;20015;-80
2022/04/07 02:19:53;;;;;;;4.40;1.83;;;8.90;99.90;;;;;;6186939;23;20464;-79
2022/04/07 02:22:19;;;;;;;7.18;1.95;;;9.00;99.90;;;;;;6163181;23;20541;-79
2022/04/07 02:24:50;;;;;;;9.93;1.98;;;9.00;99.90;;;;;;6187998;23;20044;-81
2022/04/07 02:27:21;;;;;;;6.75;2.05;;;9.00;99.90;;;;;;6214008;23;20068;-80
2022/04/07 02:33:40;;;;;;;11.35;2.33;;;8.90;99.90;;;;;;6064453;23;20022;-79
2022/04/07 02:36:08;;;;;;;11.73;2.55;;;8.90;99.90;;;;;;6060344;23;20044;-80
2022/04/07 02:38:46;;;;;;;6.85;2.10;;;8.90;99.90;;;;;;6155931;23;20016;-80
2022/04/07 02:41:21;;;;;;;13.00;3.63;;;8.90;99.90;;;;;;6214495;23;20016;-80
2022/04/07 02:44:05;;;;;;;11.38;2.50;;;8.90;99.90;;;;;;6191636;23;20234;-78
2022/04/07 02:46:30;;;;;;;6.97;2.00;;;8.90;99.90;;;;;;6188162;23;20096;-79
2022/04/07 02:49:02;;;;;;;7.05;1.90;;;8.90;99.90;;;;;;6188626;23;20365;-79
2022/04/07 02:51:32;;;;;;;8.07;2.27;;;8.90;99.90;;;;;;6187584;23;20047;-79
2022/04/07 02:53:58;;;;;;;10.30;2.72;;;9.00;99.90;;;;;;6188105;23;20573;-79
2022/04/07 02:56:31;;;;;;;7.88;2.63;;;9.00;99.90;;;;;;6163366;23;20095;-80
2022/04/07 02:59:28;;;;;;;10.23;2.33;;;9.00;99.90;;;;;;6188079;23;20454;-79
2022/04/07 03:02:17;;;;;;;9.70;1.88;;;9.00;99.90;;;;;;6178423;23;20107;-79
2022/04/07 03:04:56;;;;;;;14.60;2.75;;;9.00;99.90;;;;;;6191820;23;20024;-80
2022/04/07 03:07:21;;;;;;;7.97;1.80;;;8.90;99.90;;;;;;6188520;23;20516;-80
2022/04/07 03:09:50;;;;;;;8.68;1.70;;;8.90;99.90;;;;;;6164435;23;20017;-78
2022/04/07 03:12:15;;;;;;;4.18;1.90;;;8.90;99.90;;;;;;6187703;23;20020;-79
2022/04/07 03:14:41;;;;;;;11.40;2.30;;;8.90;99.90;;;;;;6189415;23;20023;-79
2022/04/07 03:17:07;;;;;;;7.47;2.33;;;8.80;99.90;;;;;;6217774;23;20106;-80
2022/04/07 03:19:33;;;;;;;8.15;2.75;;;8.80;99.90;;;;;;6187779;23;20070;-81
2022/04/07 03:21:58;;;;;;;13.23;3.50;;;8.70;99.90;;;;;;6188169;23;20016;-79
2022/04/07 03:24:24;;;;;;;15.82;2.95;;;8.70;99.90;;;;;;6163704;23;20052;-79
2022/04/07 03:26:51;;;;;;;8.27;2.30;;;8.70;99.90;;;;;;6187182;23;20503;-79
2022/04/07 03:29:19;;;;;;;10.77;2.42;;;8.60;99.90;;;;;;6189032;23;20454;-78
2022/04/07 03:31:45;;;;;;;11.35;2.22;;;8.60;99.90;;;;;;6187615;23;20027;-78
2022/04/07 03:34:11;;;;;;;11.15;3.22;;;8.60;99.90;;;;;;6187644;23;20013;-79
2022/04/07 03:36:36;;;;;;;7.07;3.53;;;8.60;99.90;;;;;;6216181;23;20012;-79
2022/04/07 03:39:04;;;;;;;4.90;2.20;;;8.60;99.90;;;;;;6194184;23;20346;-80
2022/04/07 03:41:31;;;;;;;7.88;2.38;;;8.70;99.90;;;;;;6195096;23;20012;-80
2022/04/07 03:43:57;;;;;;;6.20;2.35;;;8.60;99.90;;;;;;6168870;23;20446;-80
2022/04/07 03:46:26;;;;;;;10.60;2.58;;;8.60;99.90;;;;;;6193685;23;20114;-81
2022/04/07 03:48:52;;;;;;;7.30;2.05;;;8.60;99.90;;;;;;6167478;23;20454;-79
2022/04/07 03:51:18;;;;;;;4.70;1.88;;;8.60;99.90;;;;;;6191589;23;20012;-78
2022/04/07 03:53:44;;;;;;;6.47;2.22;;;8.60;99.90;;;;;;6189476;23;20017;-79
2022/04/07 03:56:29;;;;;;;14.50;2.95;;;8.70;99.90;;;;;;6190927;23;20009;-80
2022/04/07 03:58:58;;;;;;;9.65;2.85;;;8.70;99.90;;;;;;6167350;23;20017;-80
2022/04/07 04:01:44;;;;;;;7.65;2.45;;;8.80;99.90;;;;;;6191641;23;20061;-80
2022/04/07 04:04:28;;;;;;;11.90;3.65;;;8.70;99.90;;;;;;6190284;23;20051;-79
2022/04/07 04:06:53;;;;;;;13.60;3.45;;;8.70;99.90;;;;;;6165171;23;20080;-80
2022/04/07 04:09:19;;;;;;;20.52;3.00;;;8.70;99.90;;;;;;6189835;23;20091;-79
2022/04/07 04:11:44;;;;;;;13.07;3.10;;;8.70;99.90;;;;;;6188286;23;20016;-80
2022/04/07 04:14:10;;;;;;;11.77;2.42;;;8.70;99.90;;;;;;6190347;23;20020;-80
2022/04/07 04:16:35;;;;;;;12.05;3.13;;;8.70;99.90;;;;;;6189729;23;20017;-79
2022/04/07 04:19:01;;;;;;;17.30;4.35;;;8.70;99.90;;;;;;6172170;23;20067;-81
2022/04/07 04:21:45;;;;;;;19.25;2.47;;;8.70;99.90;;;;;;6207642;23;20020;-79
2022/04/07 04:24:11;;;;;;;12.70;2.25;;;8.70;99.90;;;;;;6195756;23;20012;-79
2022/04/07 04:26:36;;;;;;;15.77;4.18;;;8.70;99.90;;;;;;6186472;23;20023;-79
2022/04/07 04:29:03;;;;;;;13.43;3.22;;;8.70;99.90;;;;;;6213986;23;20023;-80
2022/04/07 04:31:28;;;;;;;12.02;2.40;;;8.70;99.90;;;;;;6161485;23;20536;-80
2022/04/07 04:33:57;;;;;;;19.45;3.20;;;8.70;99.90;;;;;;6186681;23;20016;-79
2022/04/07 04:36:22;;;;;;;14.52;2.42;;;8.70;99.90;;;;;;6186621;23;20012;-81
2022/04/07 04:38:49;;;;;;;11.02;2.67;;;8.70;99.90;;;;;;6162938;23;20027;-80
2022/04/07 04:41:15;;;;;;;9.05;2.22;;;8.70;99.90;;;;;;6213278;23;20082;-79
2022/04/07 04:43:41;;;;;;;18.75;3.47;;;8.70;99.90;;;;;;6186494;23;20088;-79
2022/04/07 04:46:12;;;;;;;14.05;2.67;;;8.70;99.90;;;;;;6161570;23;20090;-79
2022/04/07 04:48:40;;;;;;;14.23;3.28;;;8.60;99.90;;;;;;6161899;23;20601;-79
2022/04/07 04:51:06;;;;;;;12.52;2.55;;;8.70;99.90;;;;;;6161534;23;20095;-80
2022/04/07 04:53:31;;;;;;;16.15;2.78;;;8.60;99.90;;;;;;6186430;23;20401;-79
2022/04/07 04:58:32;;;;;;;17.42;3.03;;;8.60;99.90;;;;;;6209318;22;20024;-79
2022/04/07 05:00:58;;;;;;;10.15;2.90;;;8.60;99.90;;;;;;6211180;23;20012;-79
2022/04/07 05:03:35;;;;;;;7.00;2.60;;;8.60;99.90;;;;;;6187242;23;20008;-79
2022/04/07 05:06:00;;;;;;;14.25;3.45;;;8.60;99.90;;;;;;6211453;23;20015;-78
2022/04/07 05:08:26;;;;;;;14.48;3.38;;;8.60;99.90;;;;;;6187197;23;20040;-77
2022/04/07 05:10:52;;;;;;;12.32;3.67;;;8.60;99.90;;;;;;6213673;23;20310;-77
2022/04/07 05:13:18;;;;;;;15.15;3.85;;;8.60;99.90;;;;;;6212955;23;20532;-78
2022/04/07 05:15:43;;;;;;;9.88;3.00;;;8.60;99.90;;;;;;6215483;23;20017;-79
2022/04/07 05:18:09;;;;;;;12.27;3.58;;;8.60;99.90;;;;;;6194236;23;20066;-78
2022/04/07 05:20:35;;;;;;;7.10;2.63;;;8.60;99.90;;;;;;6221769;23;20017;-79
2022/04/07 05:23:01;;;;;;;8.60;2.67;;;8.60;99.90;;;;;;6197446;23;20021;-79
2022/04/07 05:25:29;;;;;;;8.40;3.38;;;8.60;99.90;;;;;;6219290;23;20040;-79
2022/04/07 05:27:54;;;;;;;10.95;3.38;;;8.60;99.90;;;;;;6220079;23;20041;-78
2022/04/07 05:30:20;;;;;;;10.20;3.40;;;8.60;99.90;;;;;;6222354;23;20327;-79
2022/04/07 05:32:46;;;;;;;11.23;3.70;;;8.60;99.90;;;;;;6219908;23;20476;-77
2022/04/07 05:35:13;;;;;;;7.18;2.83;;;8.60;99.90;;;;;;6215504;23;20016;-77
2022/04/07 05:37:39;;;;;;;10.45;3.05;;;8.60;99.90;;;;;;6214096;23;20095;-78
2022/04/07 05:40:08;;;;;;;10.93;3.28;;;8.60;99.90;;;;;;6217524;23;20016;-79
2022/04/07 05:42:33;;;;;;;7.15;3.00;;;8.60;99.90;;;;;;6216989;23;20024;-79
2022/04/07 05:44:59;;;;;;;11.45;3.25;;;8.60;99.90;;;;;;6217632;23;20017;-79
2022/04/07 05:47:24;;;;;;;11.93;4.05;;;8.70;99.90;;;;;;6218359;23;20458;-79
2022/04/07 05:49:54;;;;;;;15.10;3.53;;;8.60;99.90;;;;;;6219117;23;20012;-78
2022/04/07 05:52:19;;;;;;;3.50;1.42;;;8.70;99.90;;;;;;6189791;23;20017;-81
2022/04/07 05:54:45;;;;;;;2.58;0.50;;;8.60;99.90;;;;;;6216344;23;20043;-78
2022/04/07 05:57:11;;;;;;;0.63;0.47;;;8.10;99.90;;;;;;6192108;23;20021;-81
2022/04/07 05:59:36;;;;;;;2.25;0.68;;;7.50;99.90;;;;;;6215871;23;20087;-79
2022/04/07 06:02:02;;;;;;;0.63;0.38;;;7.20;99.90;;;;;;6217296;23;20092;-79
2022/04/07 06:04:27;;;;;;;2.03;0.40;;;6.90;99.90;;;;;;6216682;23;20012;-80
2022/04/07 06:06:53;;;;;;;0.65;0.30;;;6.70;99.90;;;;;;6190427;23;20019;-79
2022/04/07 06:09:18;;;;;;;1.75;0.30;;;6.50;99.90;;;;;;6215948;23;20350;-80
2022/04/07 06:11:44;;;;;;;1.80;0.40;;;6.30;99.90;;;;;;6217117;23;20016;-80
2022/04/07 06:14:09;;;;;;;1.42;0.57;;;6.20;99.90;;;;;;6216277;23;20030;-80
2022/04/07 06:16:35;;;;;;;1.73;0.60;;;6.20;99.90;;;;;;6189641;23;20013;-80
2022/04/07 06:19:00;;;;;;;3.10;0.70;;;6.10;99.90;;;;;;6215342;23;20024;-81
2022/04/07 06:21:29;;;;;;;5.38;0.52;;;6.00;99.90;;;;;;6214828;23;20012;-80
2022/04/07 06:23:57;;;;;;;1.83;0.55;;;5.90;99.90;;;;;;6217358;23;20009;-79
2022/04/07 06:26:25;;;;;;;2.53;0.63;;;6.00;99.90;;;;;;6167760;23;20012;-80
2022/04/07 06:28:51;;;;;;;1.65;0.75;;;5.90;99.90;;;;;;6193307;23;20013;-80
2022/04/07 06:31:20;;;;;;;5.20;0.82;;;5.90;99.90;;;;;;6191308;23;20013;-80
2022/04/07 06:33:46;;;;;;;3.30;0.75;;;5.90;99.90;;;;;;6217172;23;20034;-79
2022/04/07 06:36:11;;;;;;;2.72;0.70;;;5.80;99.90;;;;;;6216913;23;20090;-78
2022/04/07 06:38:37;;;;;;;4.57;0.52;;;5.80;99.90;;;;;;6191322;23;20040;-79
2022/04/07 06:41:02;;;;;;;2.63;0.40;;;5.80;99.90;;;;;;6218777;23;20016;-78
2022/04/07 06:43:28;;;;;;;3.10;0.43;;;5.70;99.90;;;;;;6222207;23;20015;-81
2022/04/07 06:45:54;;;;;;;2.40;0.60;;;5.70;99.90;;;;;;6216499;23;20008;-81
2022/04/07 06:48:19;;;;;;;2.58;0.70;;;5.60;99.90;;;;;;6213182;23;20118;-81
2022/04/07 06:50:45;;;;;;;0.63;0.50;;;5.60;99.90;;;;;;6213061;23;20454;-80
2022/04/07 06:53:12;;;;;;;1.77;0.50;;;5.60;99.90;;;;;;6213827;23;20051;-81
2022/04/07 06:55:39;;;;;;;0.50;0.28;;;5.60;99.90;;;;;;6214492;23;20023;-80
2022/04/07 06:58:08;;;;;;;1.35;0.52;;;5.60;99.90;;;;;;6215177;23;20039;-81
2022/04/07 07:00:40;;;;;;;1.20;0.30;;;5.50;99.90;;;;;;6215364;23;20039;-81
2022/04/07 07:03:05;;;;;;;1.33;0.43;;;5.50;99.90;;;;;;6215602;23;20442;-81
2022/04/07 07:05:32;;;;;;;2.63;0.50;;;5.40;99.90;;;;;;6217364;23;20242;-82
2022/04/07 07:08:10;;;;;;;2.05;0.75;;;5.40;99.90;;;;;;6218479;23;20012;-80
2022/04/07 07:10:36;;;;;;;3.55;0.40;;;5.50;99.90;;;;;;6218875;23;20442;-80
2022/04/07 07:13:01;;;;;;;0.70;0.70;;;5.40;99.90;;;;;;6218964;23;20043;-81
2022/04/07 07:15:27;;;;;;;1.67;0.45;;;5.40;99.90;;;;;;6232364;23;20025;-80
2022/04/07 07:17:53;;;;;;;2.83;0.50;;;5.40;99.90;;;;;;6238431;23;20016;-81
2022/04/07 07:20:18;;;;;;;3.78;0.70;;;5.40;99.90;;;;;;6219033;23;20016;-80
2022/04/07 07:22:44;;;;;;;2.35;0.50;;;5.40;99.90;;;;;;6211934;23;20020;-82
2022/04/07 07:25:11;;;;;;;4.47;0.90;;;5.50;99.90;;;;;;6212188;23;20016;-80
2022/04/07 07:27:39;;;;;;;2.78;0.60;;;5.50;99.90;;;;;;6212254;23;20454;-80
2022/04/07 07:30:09;;;;;;;3.30;0.80;;;5.50;99.90;;;;;;6186743;23;20016;-80
2022/04/07 07:32:39;;;;;;;2.83;0.55;;;5.50;99.90;;;;;;6213111;23;20020;-76
2022/04/07 07:35:06;;;;;;;2.50;0.70;;;5.50;99.90;;;;;;6212644;23;20016;-76
2022/04/07 07:37:32;;;;;;;1.15;0.50;;;5.50;99.90;;;;;;6211998;23;20044;-76
2022/04/07 07:40:04;;;;;;;3.90;0.32;;;5.50;99.90;;;;;;6212366;23;20020;-76
2022/04/07 07:42:29;;;;;;;4.68;0.70;;;5.60;99.90;;;;;;6212283;23;20342;-76
2022/04/07 07:44:55;;;;;;;5.30;0.52;;;5.50;99.90;;;;;;6212387;23;20304;-76
2022/04/07 07:47:20;;;;;;;1.63;0.45;;;5.50;99.90;;;;;;6212073;23;20017;-77
2022/04/07 07:49:46;;;;;;;1.90;0.50;;;5.50;99.90;;;;;;6211673;23;20012;-76
2022/04/07 07:52:11;;;;;;;2.35;0.88;;;5.60;99.90;;;;;;6212099;23;20021;-76
2022/04/07 07:54:37;;;;;;;3.42;0.47;;;5.60;99.90;;;;;;6212233;23;20465;-77
2022/04/07 07:57:03;;;;;;;1.13;0.75;;;5.60;99.90;;;;;;6211775;23;20017;-77
2022/04/07 07:59:28;;;;;;;4.05;0.60;;;5.60;99.90;;;;;;6211558;23;20017;-78
2022/04/07 08:01:54;;;;;;;0.85;0.35;;;5.60;99.90;;;;;;6186665;23;20445;-76
2022/04/07 08:04:19;;;;;;;2.97;0.60;;;5.70;99.90;;;;;;6187024;23;20035;-76
2022/04/07 08:06:45;;;;;;;2.72;0.30;;;5.70;99.90;;;;;;6212000;23;20017;-76
2022/04/07 08:09:13;;;;;;;1.08;0.60;;;5.70;99.90;;;;;;6211907;23;20012;-77
2022/04/07 08:11:39;;;;;;;5.45;0.88;;;5.70;99.90;;;;;;6211742;23;20027;-76
2022/04/07 08:14:05;;;;;;;1.50;0.50;;;5.80;99.90;;;;;;6211929;23;20067;-76
2022/04/07 08:16:31;;;;;;;1.48;0.57;;;5.90;99.90;;;;;;6211510;23;20024;-76
2022/04/07 08:18:56;;;;;;;2.47;0.60;;;6.00;99.90;;;;;;6211988;23;20016;-75
2022/04/07 08:21:22;;;;;;;4.28;0.70;;;6.00;99.90;;;;;;6212978;23;20059;-76
2022/04/07 08:23:48;;;;;;;1.45;0.50;;;6.10;99.90;;;;;;6211944;23;20075;-76
2022/04/07 08:26:14;;;;;;;3.22;0.60;;;6.10;99.90;;;;;;6211558;23;20013;-75
2022/04/07 08:28:40;;;;;;;1.70;0.60;;;6.20;99.90;;;;;;6213012;23;20017;-75
2022/04/07 08:31:05;;;;;;;2.03;0.63;;;6.30;99.90;;;;;;6210861;23;20013;-77
2022/04/07 08:33:31;;;;;;;2.15;0.47;;;6.40;99.90;;;;;;6186360;23;20027;-76
2022/04/07 08:35:56;;;;;;;9.98;1.00;;;6.50;99.90;;;;;;6212715;23;20013;-76
2022/04/07 08:38:22;;;;;;;0.90;0.60;;;6.70;99.90;;;;;;6211344;23;20016;-76
2022/04/07 08:40:51;;;;;;;2.45;0.63;;;6.80;99.90;;;;;;6211031;23;20013;-76
2022/04/07 08:43:18;;;;;;;3.80;0.68;;;6.90;99.90;;;;;;6211134;23;20091;-76
2022/04/07 08:45:44;;;;;;;1.77;0.45;;;7.00;99.90;;;;;;6210867;23;20075;-76
2022/04/07 08:48:12;;;;;;;5.38;0.82;;;7.30;99.90;;;;;;6212684;23;20024;-76
2022/04/07 08:50:41;;;;;;;2.83;0.70;;;8.10;99.90;;;;;;6186012;23;20019;-76
2022/04/07 08:53:07;;;;;;;2.08;0.57;;;9.00;99.90;;;;;;6212753;23;20335;-76
2022/04/07 08:55:33;;;;;;;3.47;0.70;;;9.90;99.90;;;;;;6211111;23;20446;-76
2022/04/07 08:58:00;;;;;;;3.67;0.60;;;10.60;99.90;;;;;;6212648;23;20009;-76
2022/04/07 09:00:26;;;;;;;1.50;0.40;;;11.10;99.90;;;;;;6210550;23;20012;-76
2022/04/07 09:02:53;;;;;;;2.30;0.45;;;11.40;99.90;;;;;;6210860;23;20374;-76
2022/04/07 09:05:23;;;;;;;5.03;0.70;;;11.60;99.90;;;;;;6211067;23;20370;-76
2022/04/07 09:07:50;;;;;;;1.77;0.52;;;11.90;99.90;;;;;;6211054;23;20078;-76
2022/04/07 09:10:19;;;;;;;5.28;0.95;;;12.20;99.90;;;;;;6210714;23;20012;-77
2022/04/07 09:12:44;;;;;;;33.25;7.78;;;12.50;99.90;;;;;;6210914;23;20020;-76
2022/04/07 09:15:12;;;;;;;7.75;2.03;;;12.70;99.90;;;;;;6211027;23;20031;-77
2022/04/07 09:17:56;;;;;;;1.92;0.75;;;12.70;99.90;;;;;;6211001;23;20070;-77
2022/04/07 09:20:22;;;;;;;3.88;0.50;;;12.70;99.90;;;;;;6212300;23;20104;-76
2022/04/07 09:22:59;;;;;;;5.45;1.02;;;12.80;99.90;;;;;;6210981;23;20051;-75
2022/04/07 09:25:26;;;;;;;2.88;0.95;;;12.60;99.90;;;;;;6210988;23;20012;-77
2022/04/07 09:27:53;;;;;;;3.25;0.60;;;12.70;99.90;;;;;;6210866;23;20083;-77
2022/04/07 09:30:19;;;;;;;7.05;1.17;;;12.60;99.90;;;;;;6211976;23;20040;-76
2022/04/07 09:32:45;;;;;;;3.35;0.70;;;12.50;99.90;;;;;;6212967;23;20080;-76
2022/04/07 09:35:11;;;;;;;5.15;0.80;;;12.60;99.90;;;;;;6212940;23;20355;-76
2022/04/07 09:37:42;;;;;;;4.32;0.70;;;12.90;99.90;;;;;;6212763;23;20115;-76
2022/04/07 09:40:14;;;;;;;7.90;1.13;;;13.00;99.90;;;;;;6203143;23;20027;-80
2022/04/07 09:42:41;;;;;;;5.18;1.50;;;12.60;99.90;;;;;;6204706;23;20521;-81
2022/04/07 09:45:11;;;;;;;4.60;1.15;;;12.10;99.90;;;;;;6230182;23;20013;-80
2022/04/07 09:47:55;;;;;;;8.90;1.25;;;11.90;99.90;;;;;;6181252;23;20020;-80
2022/04/07 09:51:14;;;;;;;6.15;1.95;;;11.90;99.90;;;;;;6231869;23;20017;-80
2022/04/07 09:53:43;;;;;;;4.83;0.70;;;11.90;99.90;;;;;;6060838;23;20019;-80
2022/04/07 09:56:28;;;;;;;35.70;7.57;;;11.90;99.90;;;;;;6205715;23;20247;-81
2022/04/07 09:58:55;;;;;;;18.25;4.82;;;12.40;99.90;;;;;;6180027;23;20076;-81
2022/04/07 10:04:51;;;;;;;4.63;0.75;;;12.00;99.90;;;;;;6162076;23;20023;-81
2022/04/07 10:07:17;;;;;;;8.27;1.30;;;11.50;99.90;;;;;;6206426;23;20020;-80
2022/04/07 10:10:18;;;;;;;4.30;0.82;;;11.10;99.90;;;;;;6203498;23;20080;-81
2022/04/07 10:12:57;;;;;;;3.58;1.48;;;10.70;99.90;;;;;;6135567;23;20116;-80
2022/04/07 10:19:48;;;;;;;7.82;2.05;;;10.30;99.90;;;;;;6234538;23;20036;-82
2022/04/07 10:23:33;;;;;;;7.47;2.05;;;10.40;99.90;;;;;;6191099;23;20064;-81
2022/04/07 10:32:14;;;;;;;7.03;1.45;;;11.00;99.90;;;;;;6094259;23;20053;-81
2022/04/07 10:35:37;;;;;;;5.43;1.90;;;11.10;99.90;;;;;;6075353;23;20028;-82
2022/04/07 10:39:00;;;;;;;7.22;2.03;;;11.00;99.90;;;;;;6094864;23;20022;-81
2022/04/07 10:41:45;;;;;;;8.05;2.40;;;10.90;99.90;;;;;;6069382;23;20038;-81
2022/04/07 10:44:41;;;;;;;10.23;1.50;;;10.80;99.90;;;;;;6070342;23;20496;-82
2022/04/07 10:47:32;;;;;;;17.30;1.85;;;10.70;99.90;;;;;;6167112;22;20027;-82
2022/04/07 10:50:04;;;;;;;7.20;1.10;;;10.80;99.90;;;;;;6219535;23;20476;-81
2022/04/07 10:52:56;;;;;;;;;;;10.70;99.90;;;;;;6194585;23;20532;-81
2022/04/07 10:58:42;;;;;;;36.60;5.97;;;10.60;99.90;;;;;;6215843;22;20032;-82
2022/04/07 11:04:35;;;;;;;33.38;7.55;;;11.10;99.90;;;;;;6201619;23;20034;-81
2022/04/07 11:07:41;;;;;;;7.70;2.58;;;11.20;99.90;;;;;;6178254;23;20102;-81
2022/04/07 11:10:16;;;;;;;11.52;1.73;;;11.00;99.90;;;;;;6165919;23;20024;-81
2022/04/07 11:13:04;;;;;;;7.55;2.58;;;10.90;99.90;;;;;;6176333;23;20012;-83
2022/04/07 11:16:03;;;;;;;8.13;1.50;;;10.60;99.90;;;;;;6201341;23;20031;-82
2022/04/07 11:18:44;;;;;;;8.18;1.58;;;10.30;99.90;;;;;;6201344;23;20028;-79
2022/04/07 11:21:11;;;;;;;5.25;1.58;;;10.10;99.90;;;;;;6177867;23;20207;-80
2022/04/07 11:23:51;;;;;;;11.73;2.45;;;10.10;99.90;;;;;;6177465;23;20023;-81
2022/04/07 11:26:27;;;;;;;7.38;1.65;;;10.10;99.90;;;;;;6200281;23;20016;-81
2022/04/07 11:29:12;;;;;;;5.60;1.33;;;10.10;99.90;;;;;;6199183;23;20005;-82
2022/04/07 11:32:01;;;;;;;10.20;1.27;;;10.10;99.90;;;;;;6201339;23;20024;-80
2022/04/07 11:34:36;;;;;;;9.55;1.83;;;10.10;99.90;;;;;;6200179;23;20009;-81
2022/04/07 11:37:09;;;;;;;5.43;1.42;;;10.30;99.90;;;;;;6203094;23;20062;-81
2022/04/07 11:39:45;;;;;;;9.85;1.40;;;10.60;99.90;;;;;;6202592;23;20036;-81
2022/04/07 11:42:11;;;;;;;6.78;1.55;;;10.80;99.90;;;;;;6174528;23;20023;-82
2022/04/07 11:44:45;;;;;;;13.55;2.00;;;10.80;99.90;;;;;;6203374;23;20012;-80
2022/04/07 11:47:25;;;;;;;9.93;1.65;;;10.80;99.90;;;;;;6176318;23;20009;-81
2022/04/07 11:49:54;;;;;;;6.47;1.38;;;11.00;99.90;;;;;;6177770;23;20013;-81
2022/04/07 11:52:31;;;;;;;6.95;1.73;;;11.20;99.90;;;;;;6177843;23;20023;-83
2022/04/07 11:54:58;;;;;;;10.52;2.28;;;11.20;99.90;;;;;;6176660;23;20016;-80
2022/04/07 11:57:27;;;;;;;11.00;1.55;;;11.30;99.90;;;;;;6203683;23;20146;-81
2022/04/07 12:00:13;;;;;;;6.68;1.20;;;11.40;99.90;;;;;;6177447;23;20028;-80
2022/04/07 12:02:39;;;;;;;6.78;1.40;;;11.30;99.90;;;;;;6201675;23;20009;-81
2022/04/07 12:05:11;;;;;;;6.07;1.27;;;11.30;99.90;;;;;;6176590;23;20017;-81
2022/04/07 12:07:37;;;;;;;6.10;1.02;;;11.40;99.90;;;;;;6173593;23;20096;-81
2022/04/07 12:10:09;;;;;;;10.27;2.20;;;11.20;99.90;;;;;;6174130;23;20119;-81
2022/04/07 12:12:35;;;;;;;9.68;1.60;;;11.10;99.90;;;;;;6178506;23;20388;-81
2022/04/07 12:15:01;;;;;;;15.75;1.55;;;11.00;99.90;;;;;;6178015;23;20016;-80
2022/04/07 12:17:27;;;;;;;11.15;1.30;;;10.90;99.90;;;;;;6173486;23;20035;-81
2022/04/07 12:19:52;;;;;;;12.57;2.00;;;10.90;99.90;;;;;;6191650;23;20012;-81
2022/04/07 12:22:29;;;;;;;10.82;1.80;;;10.80;99.90;;;;;;6163843;23;20008;-82
2022/04/07 12:25:02;;;;;;;6.25;1.48;;;11.00;99.90;;;;;;6163180;23;20450;-81
2022/04/07 12:27:30;;;;;;;7.15;1.48;;;11.30;99.90;;;;;;6187988;23;20015;-81
2022/04/07 12:29:58;;;;;;;8.65;1.27;;;11.40;99.90;;;;;;6163123;23;20009;-83
2022/04/07 12:32:24;;;;;;;11.38;2.00;;;11.50;99.90;;;;;;6214409;23;20019;-82
2022/04/07 12:34:54;;;;;;;8.27;2.55;;;11.50;99.90;;;;;;6162883;23;20393;-81
2022/04/07 12:37:57;;;;;;;7.10;2.15;;;11.80;99.90;;;;;;6188836;23;20028;-81
2022/04/07 12:40:29;;;;;;;7.50;1.20;;;12.10;99.90;;;;;;6150863;23;20449;-81
2022/04/07 12:42:59;;;;;;;7.00;1.13;;;12.40;99.90;;;;;;6163606;23;20108;-82
2022/04/07 12:45:25;;;;;;;4.60;1.02;;;12.60;99.90;;;;;;6164671;23;20012;-81
2022/04/07 12:48:00;;;;;;;;;;;12.60;99.90;;;;;;6166395;23;20009;-81
2022/04/07 12:50:27;;;;;;;4.45;1.35;;;12.50;99.90;;;;;;6167519;23;19918;-81
2022/04/07 12:52:53;;;;;;;6.95;1.60;;;12.20;99.90;;;;;;6193107;23;20031;-82
2022/04/07 12:55:31;;;;;;;3.97;0.93;;;11.90;99.90;;;;;;6222247;23;20046;-82
2022/04/07 12:57:56;;;;;;;3.53;0.80;;;11.90;99.90;;;;;;6194830;23;20013;-81
2022/04/07 13:00:22;;;;;;;9.52;1.80;;;11.60;99.90;;;;;;6220016;23;20012;-80
2022/04/07 13:02:49;;;;;;;6.78;0.98;;;11.40;99.90;;;;;;6195345;23;20087;-81
2022/04/07 13:05:31;;;;;;;10.07;2.13;;;11.30;99.90;;;;;;6171456;23;20024;-81
2022/04/07 13:08:01;;;;;;;;;;;11.10;99.90;;;;;;6196678;23;20012;-81
2022/04/07 13:10:27;;;;;;;3.00;0.80;;;10.80;99.90;;;;;;6172237;23;19958;-81
2022/04/07 13:12:53;;;;;;;3.30;1.13;;;10.30;99.90;;;;;;6222844;23;20016;-81
2022/04/07 13:15:51;;;;;;;8.38;1.10;;;9.20;99.90;;;;;;6223713;23;20492;-80
2022/04/07 13:18:17;;;;;;;6.80;1.38;;;8.40;99.90;;;;;;6174359;23;20017;-80
2022/04/07 13:20:46;;;;;;;7.00;1.70;;;8.10;99.90;;;;;;6172890;23;20020;-80
2022/04/07 13:23:16;;;;;;;7.15;1.30;;;8.20;99.90;;;;;;6200051;23;20027;-81
2022/04/07 13:25:42;;;;;;;8.18;1.17;;;8.40;99.90;;;;;;6199508;23;20047;-81
2022/04/07 13:28:07;;;;;;;6.10;0.95;;;8.60;99.90;;;;;;6199526;23;20009;-82
2022/04/07 13:30:52;;;;;;;7.90;1.60;;;8.80;99.90;;;;;;6174357;23;20008;-81
2022/04/07 13:33:17;;;;;;;6.55;1.10;;;8.80;99.90;;;;;;6181645;23;20023;-80
2022/04/07 13:35:43;;;;;;;8.85;1.17;;;8.70;99.90;;;;;;6181145;23;20047;-81